createdAt,value
2016-12-23T00:00:10.184Z,19.7
2016-12-23T00:01:19.829Z,19.89
2016-12-23T00:02:30.095Z,19.7
2016-12-23T00:03:40.363Z,19.6
2016-12-23T00:04:50.638Z,19.7
2016-12-23T00:06:00.903Z,19.7
2016-12-23T00:07:11.173Z,19.79
2016-12-23T00:08:21.438Z,19.7
2016-12-23T00:09:31.743Z,19.7
2016-12-23T00:10:42.004Z,19.7
2016-12-23T00:11:52.272Z,19.6
2016-12-23T00:13:02.539Z,19.6
2016-12-23T00:14:12.809Z,19.6
2016-12-23T00:15:23.096Z,19.7
2016-12-23T00:16:33.368Z,19.7
2016-12-23T00:17:43.631Z,19.5
2016-12-23T00:18:53.903Z,19.6
2016-12-23T00:20:04.201Z,19.79
2016-12-23T00:21:14.492Z,19.89
2016-12-23T00:22:24.453Z,19.6
2016-12-23T00:23:34.824Z,19.6
2016-12-23T00:24:44.783Z,19.6
2016-12-23T00:25:55.087Z,19.7
2016-12-23T00:27:05.357Z,19.7
2016-12-23T00:28:15.333Z,19.6
2016-12-23T00:29:25.612Z,19.6
2016-12-23T00:30:35.923Z,19.6
2016-12-23T00:31:46.216Z,19.7
2016-12-23T00:32:56.492Z,19.79
2016-12-23T00:34:06.802Z,19.7
2016-12-23T00:35:17.075Z,19.7
2016-12-23T00:36:27.344Z,19.79
2016-12-23T00:37:37.701Z,19.7
2016-12-23T00:38:47.650Z,19.89
2016-12-23T00:39:57.938Z,19.7
2016-12-23T00:41:07.903Z,19.6
2016-12-23T00:42:17.858Z,19.6
2016-12-23T00:43:28.149Z,19.7
2016-12-23T00:44:38.445Z,19.79
2016-12-23T00:45:48.703Z,19.7
2016-12-23T00:46:58.985Z,19.6
2016-12-23T00:48:09.282Z,19.7
2016-12-23T00:49:19.554Z,19.89
2016-12-23T00:50:29.814Z,19.7
2016-12-23T00:51:40.119Z,19.89
2016-12-23T00:52:50.386Z,19.7
2016-12-23T00:54:00.658Z,19.79
2016-12-23T00:55:10.607Z,19.7
2016-12-23T00:56:20.892Z,19.79
2016-12-23T00:57:30.850Z,19.7
2016-12-23T00:58:41.116Z,19.4
2016-12-23T00:59:51.381Z,19.5
2016-12-23T01:01:01.692Z,19.5
2016-12-23T01:02:11.965Z,19.4
2016-12-23T01:03:22.243Z,19.7
2016-12-23T01:04:32.502Z,19.6
2016-12-23T01:05:42.773Z,19.6
2016-12-23T01:06:53.042Z,19.79
2016-12-23T01:08:03.302Z,19.7
2016-12-23T01:09:13.577Z,19.5
2016-12-23T01:10:23.845Z,19.5
2016-12-23T01:11:34.124Z,19.89
2016-12-23T01:12:44.409Z,19.6
2016-12-23T01:13:54.674Z,19.5
2016-12-23T01:15:04.937Z,19.5
2016-12-23T01:16:15.773Z,19.6
2016-12-23T01:17:26.031Z,19.5
2016-12-23T01:18:36.297Z,19.6
2016-12-23T01:19:46.562Z,19.6
2016-12-23T01:20:56.818Z,19.6
2016-12-23T01:22:06.779Z,19.6
2016-12-23T01:23:16.409Z,19.6
2016-12-23T01:24:26.364Z,19.6
2016-12-23T01:25:36.617Z,19.5
2016-12-23T01:26:46.943Z,19.6
2016-12-23T01:27:57.203Z,19.89
2016-12-23T01:29:07.503Z,19.79
2016-12-23T01:30:17.766Z,19.79
2016-12-23T01:31:27.734Z,19.79
2016-12-23T01:32:38.005Z,19.89
2016-12-23T01:33:47.961Z,19.6
2016-12-23T01:34:57.909Z,19.79
2016-12-23T01:36:08.178Z,19.79
2016-12-23T01:37:18.469Z,19.7
2016-12-23T01:38:28.738Z,20.08
2016-12-23T01:39:38.693Z,19.89
2016-12-23T01:40:48.652Z,19.89
2016-12-23T01:41:58.921Z,19.7
2016-12-23T01:43:09.202Z,19.79
2016-12-23T01:44:19.462Z,19.89
2016-12-23T01:45:29.771Z,19.89
2016-12-23T01:46:40.028Z,19.98
2016-12-23T01:47:50.287Z,19.89
2016-12-23T01:49:00.547Z,19.98
2016-12-23T01:50:10.819Z,19.89
2016-12-23T01:51:21.085Z,19.89
2016-12-23T01:52:31.346Z,19.89
2016-12-23T01:53:41.590Z,19.98
2016-12-23T01:54:51.855Z,19.89
2016-12-23T01:56:02.120Z,19.98
2016-12-23T01:57:12.072Z,19.79
2016-12-23T01:58:22.322Z,19.98
2016-12-23T01:59:32.594Z,19.89
2016-12-23T02:00:42.853Z,19.89
2016-12-23T02:01:53.106Z,19.98
2016-12-23T02:03:03.381Z,19.6
2016-12-23T02:04:13.332Z,19.79
2016-12-23T02:05:23.582Z,19.7
2016-12-23T02:06:33.559Z,19.7
2016-12-23T02:07:43.821Z,19.89
2016-12-23T02:08:54.081Z,19.79
2016-12-23T02:10:04.337Z,19.7
2016-12-23T02:11:14.648Z,19.7
2016-12-23T02:12:24.929Z,19.7
2016-12-23T02:13:34.910Z,20.08
2016-12-23T02:14:45.175Z,19.89
2016-12-23T02:15:55.133Z,19.7
2016-12-23T02:17:05.406Z,19.7
2016-12-23T02:18:15.361Z,19.7
2016-12-23T02:19:25.716Z,19.79
2016-12-23T02:20:35.985Z,19.7
2016-12-23T02:21:45.943Z,19.7
2016-12-23T02:22:56.211Z,20.17
2016-12-23T02:24:06.467Z,19.89
2016-12-23T02:25:16.723Z,19.98
2016-12-23T02:26:26.984Z,19.89
2016-12-23T02:27:37.284Z,20.08
2016-12-23T02:28:47.568Z,20.08
2016-12-23T02:29:57.841Z,19.98
2016-12-23T02:31:08.112Z,20.08
2016-12-23T02:32:18.377Z,19.89
2016-12-23T02:33:28.634Z,19.89
2016-12-23T02:34:38.899Z,19.98
2016-12-23T02:35:48.848Z,19.98
2016-12-23T02:36:59.104Z,20.17
2016-12-23T02:38:09.397Z,20.17
2016-12-23T02:39:19.703Z,20.17
2016-12-23T02:40:29.968Z,20.17
2016-12-23T02:41:39.609Z,20.17
2016-12-23T02:42:49.859Z,20.08
2016-12-23T02:44:00.115Z,20.08
2016-12-23T02:45:10.368Z,20.08
2016-12-23T02:46:20.335Z,20.08
2016-12-23T02:47:30.288Z,20.17
2016-12-23T02:48:40.547Z,19.98
2016-12-23T02:49:50.798Z,20.08
2016-12-23T02:51:01.062Z,20.08
2016-12-23T02:52:11.318Z,20.08
2016-12-23T02:53:21.584Z,19.98
2016-12-23T02:54:31.843Z,20.08
2016-12-23T02:55:42.105Z,20.17
2016-12-23T02:56:52.051Z,19.98
2016-12-23T02:58:01.689Z,20.17
2016-12-23T02:59:11.971Z,20.17
2016-12-23T03:00:22.250Z,20.17
2016-12-23T03:01:32.233Z,20.17
2016-12-23T03:02:42.486Z,20.17
2016-12-23T03:03:52.466Z,20.27
2016-12-23T03:05:02.722Z,20.27
2016-12-23T03:06:12.995Z,20.27
2016-12-23T03:07:23.250Z,20.27
2016-12-23T03:08:33.187Z,20.27
2016-12-23T03:09:43.513Z,20.17
2016-12-23T03:10:53.782Z,20.27
2016-12-23T03:12:04.051Z,20.17
2016-12-23T03:13:14.012Z,20.37
2016-12-23T03:14:24.275Z,20.17
2016-12-23T03:15:34.235Z,20.17
2016-12-23T03:16:44.499Z,20.17
2016-12-23T03:17:54.757Z,20.27
2016-12-23T03:19:05.046Z,20.37
2016-12-23T03:20:14.994Z,20.27
2016-12-23T03:21:25.254Z,20.17
2016-12-23T03:22:35.216Z,20.17
2016-12-23T03:23:45.507Z,20.37
2016-12-23T03:24:55.769Z,20.17
2016-12-23T03:26:06.025Z,20.17
2016-12-23T03:27:15.987Z,20.17
2016-12-23T03:28:26.262Z,20.27
2016-12-23T03:29:36.523Z,20.37
2016-12-23T03:30:46.765Z,20.27
2016-12-23T03:31:57.030Z,20.17
2016-12-23T03:33:07.289Z,20.37
2016-12-23T03:34:17.548Z,20.27
2016-12-23T03:35:27.823Z,20.27
2016-12-23T03:36:38.143Z,20.37
2016-12-23T03:37:48.409Z,20.17
2016-12-23T03:38:58.678Z,20.37
2016-12-23T03:40:08.939Z,20.27
2016-12-23T03:41:19.203Z,20.17
2016-12-23T03:42:29.148Z,20.27
2016-12-23T03:43:39.103Z,20.27
2016-12-23T03:44:49.062Z,20.17
2016-12-23T03:45:59.321Z,20.37
2016-12-23T03:47:09.586Z,20.47
2016-12-23T03:48:19.545Z,20.17
2016-12-23T03:49:29.814Z,20.47
2016-12-23T03:50:39.770Z,20.56
2016-12-23T03:51:50.022Z,20.47
2016-12-23T03:53:00.298Z,20.56
2016-12-23T03:54:10.557Z,20.47
2016-12-23T03:55:20.812Z,20.27
2016-12-23T03:56:31.078Z,20.27
2016-12-23T03:57:41.340Z,20.56
2016-12-23T03:58:51.411Z,20.47
2016-12-23T04:00:01.357Z,20.47
2016-12-23T04:01:11.644Z,20.56
2016-12-23T04:02:21.644Z,20.56
2016-12-23T04:03:31.894Z,20.27
2016-12-23T04:04:41.546Z,20.27
2016-12-23T04:05:51.814Z,20.37
2016-12-23T04:07:02.067Z,20.37
2016-12-23T04:08:12.339Z,20.56
2016-12-23T04:09:22.291Z,20.37
2016-12-23T04:10:32.230Z,20.56
2016-12-23T04:11:42.508Z,20.56
2016-12-23T04:12:52.761Z,20.56
2016-12-23T04:14:02.704Z,20.47
2016-12-23T04:15:12.963Z,20.37
2016-12-23T04:16:23.254Z,20.56
2016-12-23T04:17:33.546Z,20.37
2016-12-23T04:18:43.807Z,20.37
2016-12-23T04:19:53.751Z,20.37
2016-12-23T04:21:04.003Z,20.37
2016-12-23T04:22:14.263Z,20.56
2016-12-23T04:23:24.524Z,20.37
2016-12-23T04:24:34.509Z,20.56
2016-12-23T04:25:44.768Z,20.37
2016-12-23T04:26:55.046Z,20.47
2016-12-23T04:28:05.308Z,20.37
2016-12-23T04:29:15.565Z,20.56
2016-12-23T04:30:25.818Z,20.37
2016-12-23T04:31:36.070Z,20.47
2016-12-23T04:32:46.009Z,20.47
2016-12-23T04:33:56.272Z,20.37
2016-12-23T04:35:07.027Z,20.47
2016-12-23T04:36:17.289Z,20.37
2016-12-23T04:37:27.260Z,20.37
2016-12-23T04:38:37.523Z,20.47
2016-12-23T04:39:47.474Z,20.27
2016-12-23T04:40:57.427Z,20.37
2016-12-23T04:42:07.686Z,20.37
2016-12-23T04:43:17.651Z,20.47
2016-12-23T04:44:27.597Z,20.37
2016-12-23T04:45:37.846Z,20.37
2016-12-23T04:46:48.124Z,20.37
2016-12-23T04:47:58.384Z,20.37
2016-12-23T04:49:08.662Z,20.37
2016-12-23T04:50:18.946Z,20.47
2016-12-23T04:51:28.924Z,20.37
2016-12-23T04:52:39.189Z,20.37
2016-12-23T04:53:49.455Z,20.37
2016-12-23T04:54:59.708Z,20.47
2016-12-23T04:56:09.347Z,20.37
2016-12-23T04:57:19.599Z,20.37
2016-12-23T04:58:29.867Z,20.37
2016-12-23T04:59:40.127Z,20.37
2016-12-23T05:00:50.083Z,20.27
2016-12-23T05:02:00.035Z,20.37
2016-12-23T05:03:10.296Z,20.37
2016-12-23T05:04:20.565Z,20.37
2016-12-23T05:05:30.828Z,20.37
2016-12-23T05:06:41.118Z,20.37
2016-12-23T05:07:51.391Z,20.37
2016-12-23T05:09:01.398Z,20.37
2016-12-23T05:10:11.337Z,20.37
2016-12-23T05:11:21.285Z,20.37
2016-12-23T05:12:31.237Z,20.37
2016-12-23T05:13:41.512Z,20.37
2016-12-23T05:14:51.791Z,20.27
2016-12-23T05:16:02.056Z,20.37
2016-12-23T05:17:12.316Z,20.27
2016-12-23T05:18:21.960Z,20.37
2016-12-23T05:19:31.602Z,20.27
2016-12-23T05:20:41.863Z,20.37
2016-12-23T05:21:51.815Z,20.27
2016-12-23T05:23:02.096Z,20.37
2016-12-23T05:24:12.374Z,20.27
2016-12-23T05:25:22.339Z,20.37
2016-12-23T05:26:32.324Z,20.27
2016-12-23T05:27:42.585Z,20.37
2016-12-23T05:28:52.850Z,20.27
2016-12-23T05:30:03.122Z,20.37
2016-12-23T05:31:13.386Z,20.27
2016-12-23T05:32:23.647Z,20.37
2016-12-23T05:33:33.602Z,20.37
2016-12-23T05:34:43.865Z,20.37
2016-12-23T05:35:54.124Z,20.37
2016-12-23T05:37:04.381Z,20.47
2016-12-23T05:38:14.339Z,20.47
2016-12-23T05:39:24.621Z,20.47
2016-12-23T05:40:34.906Z,20.37
2016-12-23T05:41:45.190Z,20.47
2016-12-23T05:42:55.135Z,20.56
2016-12-23T05:44:05.419Z,20.47
2016-12-23T05:45:15.680Z,20.65
2016-12-23T05:46:25.958Z,20.37
2016-12-23T05:47:36.224Z,20.47
2016-12-23T05:48:46.503Z,20.65
2016-12-23T05:49:56.771Z,20.37
2016-12-23T05:51:06.726Z,20.37
2016-12-23T05:52:17.004Z,20.37
2016-12-23T05:53:27.267Z,20.27
2016-12-23T05:54:37.529Z,20.56
2016-12-23T05:55:47.478Z,20.47
2016-12-23T05:56:57.736Z,20.27
2016-12-23T05:58:08.026Z,20.37
2016-12-23T05:59:18.288Z,20.17
2016-12-23T06:00:28.558Z,20.56
2016-12-23T06:01:38.835Z,20.47
2016-12-23T06:02:48.791Z,20.27
2016-12-23T06:03:59.058Z,20.27
2016-12-23T06:05:09.312Z,20.17
2016-12-23T06:06:19.574Z,20.37
2016-12-23T06:07:29.830Z,20.27
2016-12-23T06:08:39.786Z,20.27
2016-12-23T06:09:49.738Z,20.17
2016-12-23T06:10:59.392Z,20.27
2016-12-23T06:12:09.351Z,20.37
2016-12-23T06:13:18.708Z,20.47
2016-12-23T06:14:28.992Z,20.37
2016-12-23T06:15:39.258Z,20.27
2016-12-23T06:16:49.540Z,20.17
2016-12-23T06:17:59.799Z,19.98
2016-12-23T06:19:10.093Z,20.17
2016-12-23T06:20:20.361Z,20.17
2016-12-23T06:21:30.612Z,20.17
2016-12-23T06:22:40.567Z,20.08
2016-12-23T06:23:50.835Z,20.17
2016-12-23T06:25:01.094Z,20.17
2016-12-23T06:26:11.063Z,20.17
2016-12-23T06:27:20.707Z,19.98
2016-12-23T06:28:30.349Z,19.98
2016-12-23T06:29:40.868Z,20.17
2016-12-23T06:30:51.133Z,20.17
2016-12-23T06:32:01.087Z,20.17
2016-12-23T06:33:11.369Z,20.08
2016-12-23T06:34:21.629Z,20.17
2016-12-23T06:35:31.894Z,19.98
2016-12-23T06:36:42.162Z,19.79
2016-12-23T06:37:52.430Z,20.08
2016-12-23T06:39:02.702Z,19.7
2016-12-23T06:40:12.995Z,20.08
2016-12-23T06:41:22.947Z,19.7
2016-12-23T06:42:32.925Z,19.7
2016-12-23T06:43:43.188Z,20.08
2016-12-23T06:44:53.482Z,19.6
2016-12-23T06:46:03.742Z,19.89
2016-12-23T06:47:13.696Z,19.7
2016-12-23T06:48:23.667Z,19.7
2016-12-23T06:49:33.942Z,20.08
2016-12-23T06:50:44.212Z,19.7
2016-12-23T06:51:54.480Z,19.98
2016-12-23T06:53:04.430Z,19.7
2016-12-23T06:54:14.692Z,19.7
2016-12-23T06:55:24.663Z,19.79
2016-12-23T06:56:34.945Z,20.08
2016-12-23T06:57:44.900Z,20.08
2016-12-23T06:58:54.842Z,19.79
2016-12-23T07:00:05.109Z,19.79
2016-12-23T07:01:15.396Z,19.79
2016-12-23T07:02:25.661Z,19.89
2016-12-23T07:03:35.917Z,19.79
2016-12-23T07:04:46.184Z,19.98
2016-12-23T07:05:56.453Z,19.79
2016-12-23T07:07:06.416Z,19.79
2016-12-23T07:08:16.680Z,19.89
2016-12-23T07:09:26.955Z,19.79
2016-12-23T07:10:37.223Z,19.6
2016-12-23T07:11:47.493Z,19.7
2016-12-23T07:12:57.751Z,19.5
2016-12-23T07:14:08.180Z,19.7
2016-12-23T07:15:18.132Z,19.5
2016-12-23T07:16:28.391Z,19.5
2016-12-23T07:17:38.353Z,19.4
2016-12-23T07:18:48.638Z,19.6
2016-12-23T07:19:58.922Z,19.5
2016-12-23T07:21:08.881Z,19.79
2016-12-23T07:22:19.162Z,19.79
2016-12-23T07:23:29.466Z,19.79
2016-12-23T07:24:40.132Z,19.7
2016-12-23T07:25:50.407Z,19.79
2016-12-23T07:27:00.689Z,19.89
2016-12-23T07:28:10.961Z,19.89
2016-12-23T07:29:21.226Z,19.89
2016-12-23T07:30:31.489Z,19.79
2016-12-23T07:31:41.129Z,19.89
2016-12-23T07:32:51.406Z,19.89
2016-12-23T07:34:01.683Z,19.79
2016-12-23T07:35:11.966Z,19.6
2016-12-23T07:36:22.241Z,19.89
2016-12-23T07:37:32.205Z,19.6
2016-12-23T07:38:42.157Z,19.79
2016-12-23T07:39:52.433Z,19.6
2016-12-23T07:41:02.931Z,19.89
2016-12-23T07:42:13.194Z,19.6
2016-12-23T07:43:23.457Z,19.79
2016-12-23T07:44:33.731Z,19.79
2016-12-23T07:45:43.999Z,19.7
2016-12-23T07:46:54.260Z,19.7
2016-12-23T07:48:04.212Z,19.6
2016-12-23T07:49:14.476Z,19.6
2016-12-23T07:50:24.446Z,19.7
2016-12-23T07:51:34.734Z,19.6
2016-12-23T07:52:45.011Z,19.7
2016-12-23T07:53:55.257Z,19.79
2016-12-23T07:55:05.518Z,19.7
2016-12-23T07:56:15.781Z,19.79
2016-12-23T07:57:26.059Z,19.79
2016-12-23T07:58:36.333Z,19.89
2016-12-23T07:59:46.592Z,19.6
2016-12-23T08:00:56.860Z,19.7
2016-12-23T08:02:07.120Z,19.7
2016-12-23T08:03:17.409Z,19.79
2016-12-23T08:04:27.687Z,19.79
2016-12-23T08:05:37.971Z,19.7
2016-12-23T08:06:48.233Z,19.89
2016-12-23T08:07:58.506Z,19.7
2016-12-23T08:09:08.768Z,19.7
2016-12-23T08:10:19.213Z,19.6
2016-12-23T08:11:29.485Z,19.7
2016-12-23T08:12:39.757Z,19.6
2016-12-23T08:13:50.023Z,19.7
2016-12-23T08:15:00.285Z,19.7
2016-12-23T08:16:10.561Z,19.89
2016-12-23T08:17:20.840Z,19.7
2016-12-23T08:18:31.100Z,19.79
2016-12-23T08:19:41.430Z,19.5
2016-12-23T08:20:51.699Z,19.5
2016-12-23T08:22:01.967Z,19.7
2016-12-23T08:23:12.239Z,19.5
2016-12-23T08:24:21.907Z,19.7
2016-12-23T08:25:32.172Z,19.31
2016-12-23T08:26:42.469Z,19.7
2016-12-23T08:27:52.750Z,19.21
2016-12-23T08:29:03.000Z,19.31
2016-12-23T08:30:12.955Z,19.21
2016-12-23T08:31:22.599Z,19.4
2016-12-23T08:32:32.891Z,19.21
2016-12-23T08:33:43.145Z,19.7
2016-12-23T08:34:53.419Z,19.4
2016-12-23T08:36:03.694Z,19.31
2016-12-23T08:37:13.991Z,19.21
2016-12-23T08:38:24.251Z,19.31
2016-12-23T08:39:34.237Z,19.31
2016-12-23T08:40:44.500Z,19.4
2016-12-23T08:41:54.493Z,19.4
2016-12-23T08:43:04.464Z,19.5
2016-12-23T08:44:14.733Z,19.31
2016-12-23T08:45:25.040Z,19.12
2016-12-23T08:46:34.998Z,19.02
2016-12-23T08:47:45.276Z,19.21
2016-12-23T08:48:55.542Z,19.4
2016-12-23T08:50:05.504Z,19.21
2016-12-23T08:51:15.777Z,19.5
2016-12-23T08:52:25.746Z,19.5
2016-12-23T08:53:36.016Z,19.31
2016-12-23T08:54:46.281Z,19.5
2016-12-23T08:55:56.550Z,19.21
2016-12-23T08:57:06.499Z,19.5
2016-12-23T08:58:16.767Z,19.5
2016-12-23T08:59:26.725Z,19.4
2016-12-23T09:00:36.986Z,19.5
2016-12-23T09:01:46.957Z,19.4
2016-12-23T09:02:57.231Z,19.31
2016-12-23T09:04:07.194Z,19.4
2016-12-23T09:05:17.504Z,19.02
2016-12-23T09:06:27.513Z,19.12
2016-12-23T09:07:37.779Z,19.21
2016-12-23T09:08:47.737Z,19.21
2016-12-23T09:09:58.000Z,19.12
2016-12-23T09:11:07.974Z,19.31
2016-12-23T09:12:18.271Z,19.21
2016-12-23T09:13:28.531Z,19.21
2016-12-23T09:14:38.799Z,19.21
2016-12-23T09:15:49.075Z,19.21
2016-12-23T09:16:59.356Z,19.12
2016-12-23T09:18:09.663Z,19.21
2016-12-23T09:19:19.938Z,19.31
2016-12-23T09:20:30.758Z,19.12
2016-12-23T09:21:41.027Z,19.12
2016-12-23T09:22:51.296Z,19.02
2016-12-23T09:24:01.267Z,19.31
2016-12-23T09:25:11.564Z,19.31
2016-12-23T09:26:21.825Z,19.31
2016-12-23T09:27:32.102Z,19.4
2016-12-23T09:28:42.370Z,19.21
2016-12-23T09:29:52.652Z,19.02
2016-12-23T09:31:02.907Z,19.31
2016-12-23T09:32:13.190Z,19.31
2016-12-23T09:33:23.474Z,19.21
2016-12-23T09:34:33.741Z,19.4
2016-12-23T09:35:43.788Z,19.12
2016-12-23T09:36:53.743Z,19.6
2016-12-23T09:38:04.042Z,19.12
2016-12-23T09:39:14.313Z,19.12
2016-12-23T09:40:24.591Z,19.12
2016-12-23T09:41:34.860Z,19.12
2016-12-23T09:42:45.119Z,19.21
2016-12-23T09:43:55.407Z,19.21
2016-12-23T09:45:05.667Z,19.21
2016-12-23T09:46:15.938Z,19.12
2016-12-23T09:47:26.252Z,19.5
2016-12-23T09:48:36.527Z,19.31
2016-12-23T09:49:46.786Z,19.12
2016-12-23T09:50:57.037Z,19.21
2016-12-23T09:52:07.003Z,19.31
2016-12-23T09:53:17.261Z,19.12
2016-12-23T09:54:27.527Z,19.21
2016-12-23T09:55:37.801Z,19.12
2016-12-23T09:56:48.070Z,19.21
2016-12-23T09:57:58.028Z,19.21
2016-12-23T09:59:07.991Z,19.12
2016-12-23T10:00:18.262Z,19.21
2016-12-23T10:01:28.241Z,19.12
2016-12-23T10:02:38.515Z,19.31
2016-12-23T10:03:48.776Z,19.31
2016-12-23T10:04:59.087Z,19.5
2016-12-23T10:06:09.344Z,19.31
2016-12-23T10:07:19.613Z,18.93
2016-12-23T10:08:29.571Z,19.21
2016-12-23T10:09:39.846Z,19.12
2016-12-23T10:10:50.102Z,18.93
2016-12-23T10:12:00.360Z,18.93
2016-12-23T10:13:10.639Z,19.4
2016-12-23T10:14:20.592Z,19.12
2016-12-23T10:15:30.541Z,19.4
2016-12-23T10:16:40.825Z,18.93
2016-12-23T10:17:51.089Z,19.21
2016-12-23T10:19:01.367Z,19.12
2016-12-23T10:20:11.321Z,19.6
2016-12-23T10:21:21.591Z,19.12
2016-12-23T10:22:31.885Z,19.12
2016-12-23T10:23:41.830Z,19.21
2016-12-23T10:24:52.087Z,19.21
2016-12-23T10:26:02.055Z,19.21
2016-12-23T10:27:12.350Z,19.21
2016-12-23T10:28:22.637Z,19.21
2016-12-23T10:29:32.951Z,19.21
2016-12-23T10:30:43.216Z,19.21
2016-12-23T10:31:53.165Z,19.12
2016-12-23T10:33:03.431Z,19.12
2016-12-23T10:34:13.709Z,19.21
2016-12-23T10:35:24.000Z,19.4
2016-12-23T10:36:34.276Z,19.21
2016-12-23T10:37:44.552Z,19.31
2016-12-23T10:38:54.827Z,19.31
2016-12-23T10:40:05.102Z,19.21
2016-12-23T10:41:15.386Z,19.4
2016-12-23T10:42:25.659Z,19.21
2016-12-23T10:43:35.956Z,19.5
2016-12-23T10:44:46.232Z,19.4
2016-12-23T10:45:56.190Z,19.02
2016-12-23T10:47:06.139Z,19.21
2016-12-23T10:48:16.411Z,19.12
2016-12-23T10:49:26.693Z,19.12
2016-12-23T10:50:37.192Z,19.21
2016-12-23T10:51:47.492Z,19.6
2016-12-23T10:52:57.769Z,19.31
2016-12-23T10:54:08.059Z,19.12
2016-12-23T10:55:18.341Z,19.4
2016-12-23T10:56:28.638Z,19.4
2016-12-23T10:57:38.894Z,19.31
2016-12-23T10:58:49.157Z,19.4
2016-12-23T10:59:59.112Z,19.31
2016-12-23T11:01:09.384Z,19.31
2016-12-23T11:02:19.650Z,19.4
2016-12-23T11:03:29.928Z,19.5
2016-12-23T11:04:39.870Z,19.5
2016-12-23T11:05:49.829Z,19.5
2016-12-23T11:07:00.111Z,19.31
2016-12-23T11:08:10.379Z,19.31
2016-12-23T11:09:20.632Z,19.5
2016-12-23T11:10:30.617Z,19.5
2016-12-23T11:11:40.882Z,19.5
2016-12-23T11:12:51.144Z,19.5
2016-12-23T11:14:01.407Z,19.21
2016-12-23T11:15:11.678Z,19.31
2016-12-23T11:16:21.640Z,19.5
2016-12-23T11:17:31.921Z,19.4
2016-12-23T11:18:42.206Z,19.21
2016-12-23T11:19:52.483Z,19.4
2016-12-23T11:21:02.761Z,19.5
2016-12-23T11:22:13.058Z,19.31
2016-12-23T11:23:23.014Z,19.5
2016-12-23T11:24:33.280Z,19.21
2016-12-23T11:25:43.555Z,19.31
2016-12-23T11:26:53.814Z,19.5
2016-12-23T11:28:04.092Z,19.7
2016-12-23T11:29:14.358Z,19.4
2016-12-23T11:30:24.624Z,19.5
2016-12-23T11:31:34.583Z,19.31
2016-12-23T11:32:44.844Z,19.7
2016-12-23T11:33:55.132Z,19.6
2016-12-23T11:35:05.414Z,19.6
2016-12-23T11:36:15.683Z,19.6
2016-12-23T11:37:25.641Z,19.6
2016-12-23T11:38:35.983Z,19.6
2016-12-23T11:39:46.239Z,19.6
2016-12-23T11:40:56.518Z,19.5
2016-12-23T11:42:06.807Z,19.5
2016-12-23T11:43:17.081Z,19.5
2016-12-23T11:44:27.036Z,19.5
2016-12-23T11:45:37.295Z,19.6
2016-12-23T11:46:47.558Z,19.5
2016-12-23T11:47:57.814Z,19.5
2016-12-23T11:49:08.096Z,19.7
2016-12-23T11:50:18.364Z,19.7
2016-12-23T11:51:28.641Z,19.7
2016-12-23T11:52:38.935Z,19.79
2016-12-23T11:53:49.229Z,19.6
2016-12-23T11:54:59.491Z,19.6
2016-12-23T11:56:09.819Z,19.79
2016-12-23T11:57:20.083Z,19.79
2016-12-23T11:58:30.355Z,19.79
2016-12-23T11:59:40.621Z,19.6
2016-12-23T12:00:50.900Z,19.89
2016-12-23T12:02:01.178Z,19.7
2016-12-23T12:03:11.155Z,19.6
2016-12-23T12:04:21.421Z,19.7
2016-12-23T12:05:31.731Z,19.7
2016-12-23T12:06:41.997Z,19.79
2016-12-23T12:07:52.261Z,19.79
2016-12-23T12:09:02.544Z,19.89
2016-12-23T12:10:12.803Z,19.7
2016-12-23T12:11:23.088Z,19.7
2016-12-23T12:12:33.366Z,19.7
2016-12-23T12:13:43.327Z,19.79
2016-12-23T12:14:53.593Z,19.7
2016-12-23T12:16:03.251Z,19.7
2016-12-23T12:17:13.213Z,19.6
2016-12-23T12:18:23.488Z,19.79
2016-12-23T12:19:41.555Z,19.7
2016-12-23T12:20:51.520Z,19.7
2016-12-23T12:22:01.824Z,19.7
2016-12-23T12:23:12.177Z,19.89
2016-12-23T12:24:22.446Z,19.79
2016-12-23T12:25:32.716Z,19.79
2016-12-23T12:26:42.679Z,19.89
2016-12-23T12:27:52.954Z,19.79
2016-12-23T12:29:03.226Z,19.7
2016-12-23T12:30:13.492Z,19.7
2016-12-23T12:31:23.754Z,19.7
2016-12-23T12:32:34.025Z,19.6
2016-12-23T12:33:44.317Z,19.6
2016-12-23T12:34:54.614Z,19.7
2016-12-23T12:36:04.899Z,19.89
2016-12-23T12:37:15.175Z,19.7
2016-12-23T12:38:25.469Z,19.79
2016-12-23T12:39:35.754Z,19.79
2016-12-23T12:40:45.715Z,19.6
2016-12-23T12:41:55.980Z,19.89
2016-12-23T12:43:05.943Z,19.7
2016-12-23T12:44:16.224Z,19.7
2016-12-23T12:45:26.503Z,19.79
2016-12-23T12:46:36.775Z,19.7
2016-12-23T12:47:47.044Z,19.6
2016-12-23T12:48:57.302Z,19.7
2016-12-23T12:50:06.973Z,19.7
2016-12-23T12:51:17.235Z,19.6
2016-12-23T12:52:27.539Z,19.6
2016-12-23T12:53:37.815Z,19.4
2016-12-23T12:54:48.112Z,19.5
2016-12-23T12:55:58.384Z,19.79
2016-12-23T12:57:08.963Z,19.5
2016-12-23T12:58:19.235Z,19.7
2016-12-23T12:59:29.523Z,19.79
2016-12-23T13:00:39.783Z,19.7
2016-12-23T13:01:50.051Z,19.89
2016-12-23T13:03:00.317Z,19.89
2016-12-23T13:04:10.641Z,19.79
2016-12-23T13:05:20.918Z,19.7
2016-12-23T13:06:30.867Z,19.89
2016-12-23T13:07:41.133Z,19.89
2016-12-23T13:08:51.389Z,20.17
2016-12-23T13:10:01.657Z,20.08
2016-12-23T13:11:11.636Z,20.08
2016-12-23T13:12:21.933Z,19.98
2016-12-23T13:13:31.923Z,20.17
2016-12-23T13:14:42.202Z,20.08
2016-12-23T13:15:52.480Z,20.17
2016-12-23T13:17:02.743Z,20.37
2016-12-23T13:18:13.025Z,20.27
2016-12-23T13:19:23.318Z,20.17
2016-12-23T13:20:33.601Z,20.27
2016-12-23T13:21:43.873Z,20.17
2016-12-23T13:22:53.837Z,20.17
2016-12-23T13:24:04.099Z,20.37
2016-12-23T13:25:14.397Z,20.27
2016-12-23T13:26:24.681Z,20.37
2016-12-23T13:27:34.950Z,20.27
2016-12-23T13:28:44.921Z,20.17
2016-12-23T13:29:55.191Z,20.27
2016-12-23T13:31:05.475Z,20.37
2016-12-23T13:32:15.763Z,20.27
2016-12-23T13:33:26.035Z,20.37
2016-12-23T13:34:36.310Z,20.37
2016-12-23T13:35:46.589Z,20.37
2016-12-23T13:36:56.540Z,20.37
2016-12-23T13:38:06.518Z,20.37
2016-12-23T13:39:16.823Z,20.56
2016-12-23T13:40:27.088Z,20.56
2016-12-23T13:41:37.357Z,20.37
2016-12-23T13:42:47.633Z,20.37
2016-12-23T13:43:57.895Z,20.37
2016-12-23T13:45:08.199Z,20.27
2016-12-23T13:46:18.476Z,20.27
2016-12-23T13:47:29.306Z,20.27
2016-12-23T13:48:39.616Z,20.47
2016-12-23T13:49:49.894Z,20.27
2016-12-23T13:51:00.186Z,20.27
2016-12-23T13:52:10.464Z,20.37
2016-12-23T13:53:20.742Z,20.08
2016-12-23T13:54:31.005Z,20.47
2016-12-23T13:55:41.270Z,20.75
2016-12-23T13:56:51.552Z,20.47
2016-12-23T13:58:01.828Z,20.47
2016-12-23T13:59:12.135Z,20.47
2016-12-23T14:00:22.418Z,20.47
2016-12-23T14:01:32.704Z,20.65
2016-12-23T14:02:42.992Z,20.65
2016-12-23T14:03:52.983Z,20.65
2016-12-23T14:05:03.261Z,20.65
2016-12-23T14:06:13.226Z,20.65
2016-12-23T14:07:23.516Z,20.65
2016-12-23T14:08:33.783Z,20.65
2016-12-23T14:09:44.045Z,20.75
2016-12-23T14:10:54.009Z,20.56
2016-12-23T14:12:04.281Z,20.56
2016-12-23T14:13:14.559Z,20.75
2016-12-23T14:14:24.839Z,20.75
2016-12-23T14:15:35.094Z,20.56
2016-12-23T14:16:45.377Z,20.65
2016-12-23T14:17:55.660Z,20.65
2016-12-23T14:19:05.933Z,20.75
2016-12-23T14:20:15.885Z,20.56
2016-12-23T14:21:26.160Z,20.56
2016-12-23T14:22:36.428Z,20.75
2016-12-23T14:23:46.691Z,20.56
2016-12-23T14:24:56.973Z,20.75
2016-12-23T14:26:07.242Z,20.56
2016-12-23T14:27:17.542Z,20.56
2016-12-23T14:28:27.511Z,20.47
2016-12-23T14:29:37.779Z,20.65
2016-12-23T14:30:47.753Z,20.56
2016-12-23T14:32:19.280Z,20.47
2016-12-23T14:33:29.241Z,20.56
2016-12-23T14:34:39.539Z,20.85
2016-12-23T14:35:49.804Z,20.94
2016-12-23T14:36:59.770Z,20.47
2016-12-23T14:38:10.050Z,20.94
2016-12-23T14:39:20.342Z,20.85
2016-12-23T14:40:30.605Z,20.85
2016-12-23T14:41:40.889Z,20.47
2016-12-23T14:42:51.151Z,20.75
2016-12-23T14:44:01.410Z,20.94
2016-12-23T14:45:11.676Z,20.75
2016-12-23T14:46:21.955Z,20.85
2016-12-23T14:47:32.229Z,20.94
2016-12-23T14:48:42.505Z,20.94
2016-12-23T14:49:52.457Z,20.94
2016-12-23T14:51:02.731Z,20.94
2016-12-23T14:52:13.003Z,20.94
2016-12-23T14:53:22.955Z,20.94
2016-12-23T14:54:33.220Z,20.85
2016-12-23T14:55:43.186Z,20.94
2016-12-23T14:56:53.467Z,20.85
2016-12-23T14:58:03.428Z,20.85
2016-12-23T14:59:13.688Z,20.94
2016-12-23T15:00:23.966Z,20.94
2016-12-23T15:01:34.263Z,20.94
2016-12-23T15:02:44.554Z,20.94
2016-12-23T15:03:54.814Z,20.75
2016-12-23T15:05:05.098Z,20.94
2016-12-23T15:06:15.379Z,20.85
2016-12-23T15:07:25.668Z,21.04
2016-12-23T15:08:35.940Z,20.85
2016-12-23T15:09:46.211Z,20.94
2016-12-23T15:10:56.497Z,21.04
2016-12-23T15:12:06.796Z,20.94
2016-12-23T15:13:17.302Z,21.04